Station: Parafield  

  Atmospheric Gas Attenuation - ITU Rec 676-11   ----------------- dB/100km -----------------
Date Time Temp RH % AH g/m3 Dew Point Wind Direction Speed kph Gust kph Barometer mB Rainfall Since 9am 24GHz 47GHz 76GHz 122GHz 134GHz 241GHz
08/05 12:10 15.6 88 11.7 13.6 20 24 1030.6 0.4 26.1 31.3 52.7 138.5 140.2 484.7
08/05 12:00 15.8 84 11.31 13.1 20 28 1030.9 0.4 25.2 30.5 50.8 133.7 134.3 464.0
08/05 11:50 15.7 85 11.37 13.2 22 24 1030.8 0.4 25.4 30.6 51.2 134.5 135.3 467.6
08/05 11:40 15.6 91 12.1 14.1 20 22 1031 0.4 26.9 32.0 54.5 143.3 146.1 505.2
08/05 11:30 14.8 87 11.02 12.7 24 32 1031.2 0.4 24.7 30.4 50.2 132.0 131.9 455.6
08/05 11:19 16.2 92 12.69 14.9 13 17 1031.2 0.2 28.2 32.8 56.7 149.3 153.6 531.6
08/05 11:10 14.8 88 11.15 12.8 22 26 1031.4 0.2 25.0 30.6 50.8 133.6 133.8 462.2
08/05 11:00 15.5 86 11.37 13.2 13 20 1031.5 0 25.4 30.7 51.3 134.9 135.7 469.0
08/05 10:50 14.7 90 11.33 13.1 15 17 1031.6 0 25.3 31.0 51.7 135.9 136.6 471.9
08/05 10:40 14.6 90 11.26 13 17 20 1031.8 0 25.2 30.9 51.4 135.3 135.8 469.1
08/05 10:30 14.6 89 11.14 12.8 11 15 1031.8 0 24.9 30.7 50.9 133.9 134.0 463.0
08/05 10:20 14.7 89 11.21 12.9 9 11 1031.6 0 25.1 30.7 51.2 134.5 134.9 465.9
08/05 10:10 14.3 88 10.81 12.3 11 13 1031.6 0 24.3 30.2 49.7 130.5 129.8 448.1
08/05 10:00 14.6 86 10.76 12.3 15 20 1031.7 0 24.1 30.0 49.3 129.4 128.6 443.9
08/05 09:50 14.6 80 10.01 11.2 19 20 1031.4 0 22.5 28.7 46.0 120.8 118.0 406.9
08/05 09:40 15.5 71 9.38 10.3 17 20 1031.3 0 21.1 27.3 42.9 112.5 108.1 372.3
08/05 09:30 15.8 70 9.42 10.3 19 26 1031.4 0 21.2 27.3 42.9 112.5 108.2 372.8
08/05 09:20 15.6 71 9.44 10.4 17 20 1031.3 0 21.3 27.4 43.1 113.0 108.7 374.7
08/05 09:10 15.2 74 9.6 10.6 19 28 1031.3 0 21.6 27.8 44.0 115.3 111.5 384.2
08/05 09:00 14.9 76 9.69 10.7 24 32 1031.4 0 21.8 28.0 44.5 116.8 113.1 390.0
08/05 08:50 15.2 72 9.35 10.2 28 32 1031.1 0 21.1 27.4 42.9 112.5 108.1 372.3
08/05 08:40 15.4 69 9.07 9.7 17 19 1031.1 0 20.5 26.9 41.7 109.2 104.0 358.2
08/05 08:30 15.4 69 9.07 9.7 19 26 1031.2 0 20.5 26.9 41.7 109.2 104.0 358.3
08/05 08:20 15.2 70 9.09 9.8 19 20 1030.9 0 20.5 26.9 41.9 109.7 104.6 360.0
08/05 08:10 15.2 70 9.09 9.8 20 26 1030.8 0 20.5 26.9 41.8 109.7 104.5 360.0
08/05 08:00 15.2 70 9.09 9.8 20 26 1030.9 0 20.5 26.9 41.9 109.7 104.6 360.0
08/05 07:50 15.2 68 8.83 9.3 20 24 1030.6 0 20.0 26.5 40.8 106.9 101.1 347.8
08/05 07:40 15.1 69 8.9 9.5 20 22 1030.5 0 20.1 26.6 41.1 107.7 102.1 351.5
08/05 07:30 14.9 70 8.92 9.5 17 20 1030.4 0 20.2 26.7 41.3 108.2 102.6 353.3
08/05 07:20 14.8 71 8.99 9.6 15 19 1030.2 0 20.4 26.9 41.6 109.1 103.7 357.0
08/05 07:10 14.6 73 9.14 9.8 13 19 1030.1 0 20.7 27.2 42.3 111.0 106.0 364.9
08/05 07:00 14.1 76 9.22 9.9 6 15 1030.2 0 20.9 27.5 42.9 112.6 107.7 371.1
08/05 06:50 13.5 79 9.24 9.9 4 6 1030 0 21.0 27.7 43.3 113.7 108.8 374.8
08/05 06:40 13.6 79 9.3 10 6 6 1030 0 21.1 27.7 43.5 114.2 109.5 377.2
08/05 06:30 13.7 79 9.36 10.1 6 7 1030 0 21.2 27.8 43.7 114.7 110.2 379.6
08/05 06:20 13.8 78 9.29 10 6 6 1030 0 21.0 27.7 43.4 113.8 109.1 375.8
08/05 06:10 14 76 9.17 9.8 6 7 1029.9 0 20.8 27.4 42.8 112.2 107.2 369.1
08/05 06:00 13.7 79 9.36 10.1 7 9 1030 0 21.2 27.8 43.7 114.7 110.2 379.6
08/05 05:50 13.8 78 9.29 10 6 6 1029.8 0 21.0 27.7 43.4 113.8 109.1 375.7
08/05 05:40 13.9 78 9.35 10.1 7 7 1029.9 0 21.2 27.7 43.6 114.3 109.8 378.1
08/05 05:30 13.9 78 9.35 10.1 11 13 1030 0 21.2 27.7 43.6 114.3 109.8 378.2
08/05 05:20 14 77 9.29 10 11 13 1030 0 21.0 27.6 43.3 113.5 108.8 374.8
08/05 05:10 13.9 77 9.23 9.9 11 13 1030 0 20.9 27.5 43.1 113.0 108.1 372.4
08/05 05:00 13.9 75 8.99 9.5 7 11 1030.1 0 20.4 27.1 42.1 110.3 104.9 361.0
08/05 04:50 14.1 73 8.86 9.3 7 7 1029.9 0 20.1 26.9 41.4 108.6 102.9 353.9
08/05 04:40 14 74 8.93 9.4 11 13 1029.8 0 20.3 27.0 41.8 109.5 103.9 357.7
08/05 04:30 13.7 76 9 9.6 0 0 1029.9 0 20.4 27.2 42.2 110.7 105.3 362.4
08/05 04:20 13.9 75 8.99 9.5 0 2 1029.8 0 20.4 27.1 42.1 110.3 104.9 361.0
08/05 04:10 13.8 76 9.06 9.6 0 0 1029.8 0 20.6 27.3 42.4 111.2 106.0 364.7
08/05 04:00 13.8 76 9.06 9.6 9 11 1029.9 0 20.6 27.3 42.4 111.2 106.0 364.8
08/05 03:50 13.9 76 9.11 9.7 9 9 1029.8 0 20.7 27.3 42.6 111.6 106.5 366.6
08/05 03:40 14 76 9.17 9.8 9 11 1029.8 0 20.8 27.4 42.8 112.1 107.2 369.0
08/05 03:30 14.1 76 9.22 9.9 15 19 1029.9 0 20.9 27.5 42.9 112.6 107.7 371.0
08/05 03:20 14.1 76 9.22 9.9 13 17 1029.9 0 20.9 27.5 42.9 112.6 107.7 371.0
08/05 03:10 13.9 76 9.11 9.7 15 15 1030 0 20.7 27.3 42.6 111.6 106.5 366.7
08/05 03:00 13.6 76 8.94 9.5 9 13 1030 0 20.3 27.1 42.0 110.2 104.6 360.0
08/05 02:50 13.5 78 9.12 9.7 7 9 1029.9 0 20.7 27.5 42.8 112.3 107.2 369.0
08/05 02:40 13.6 77 9.06 9.6 7 7 1029.8 0 20.6 27.3 42.5 111.5 106.2 365.7
08/05 02:30 13.6 77 9.06 9.6 7 13 1030.1 0 20.6 27.4 42.5 111.5 106.3 365.8
08/05 02:20 13.7 77 9.12 9.7 9 9 1030.1 0 20.7 27.4 42.7 112.1 106.9 368.1
08/05 02:10 13.9 76 9.11 9.7 11 13 1030.1 0 20.7 27.3 42.6 111.7 106.5 366.7
08/05 02:00 14.2 73 8.91 9.4 15 20 1030.3 0 20.2 26.9 41.6 109.1 103.4 356.0
08/05 01:50 14.2 73 8.91 9.4 17 19 1030.2 0 20.2 26.9 41.6 109.1 103.4 355.9
08/05 01:40 14.5 70 8.71 9.1 19 24 1030.3 0 19.8 26.5 40.7 106.5 100.4 345.3
08/05 01:30 14.7 67 8.44 8.6 17 30 1030.2 0 19.2 26.0 39.5 103.3 96.5 331.9
08/05 01:20 14.6 67 8.38 8.5 17 19 1030.2 0 19.1 25.9 39.3 102.8 95.9 329.6
08/05 01:10 14.5 67 8.33 8.5 15 17 1030.3 0 19.0 25.9 39.1 102.4 95.3 327.7
08/05 01:00 14.6 67 8.38 8.5 19 26 1030.4 0 19.1 26.0 39.3 102.8 95.9 329.6
08/05 00:50 14.6 67 8.38 8.5 20 24 1030.3 0 19.1 25.9 39.3 102.8 95.9 329.6
08/05 00:40 14.7 66 8.31 8.4 19 20 1030.3 0 18.9 25.8 39.0 101.9 94.8 326.0
08/05 00:30 14.6 64 8.01 7.9 17 24 1030.4 0 18.3 25.4 37.8 98.9 91.1 312.7
08/05 00:20 14.4 64 7.91 7.7 13 15 1030.4 0 18.1 25.3 37.5 98.1 90.0 309.0
08/05 00:10 14.2 64 7.82 7.5 17 19 1030.3 0 17.9 25.2 37.3 97.4 89.1 305.7
08/05 00:00 14.2 65 7.94 7.7 15 19 1030.5 0 18.1 25.4 37.7 98.7 90.6 311.2
07/05 23:50 13.9 67 8.03 7.9 13 15 1030.4 0 18.4 25.6 38.2 100.0 92.2 316.4
07/05 23:40 13.4 72 8.37 8.5 7 9 1030.4 0 19.1 26.3 39.8 104.3 97.2 334.2
07/05 23:30 13.1 74 8.44 8.6 6 7 1030.5 0 19.3 26.5 40.3 105.5 98.6 338.8
07/05 23:20 12.9 75 8.45 8.6 6 7 1030.4 0 19.3 26.6 40.4 105.8 98.9 340.1
07/05 23:10 12.9 75 8.45 8.6 7 9 1030.6 0 19.3 26.6 40.4 105.9 99.0 340.1
07/05 23:00 12.9 76 8.57 8.8 9 13 1030.7 0 19.5 26.8 40.9 107.2 100.6 345.8
07/05 22:50 12.7 77 8.57 8.8 7 9 1030.6 0 19.6 26.8 41.0 107.4 100.8 346.7
07/05 22:40 12.8 76 8.51 8.7 7 7 1030.6 0 19.4 26.7 40.7 106.6 99.9 343.4
07/05 22:30 12.8 76 8.51 8.7 7 9 1030.7 0 19.4 26.7 40.7 106.7 99.9 343.4
07/05 22:20 12.8 77 8.63 8.9 7 7 1030.7 0 19.7 26.9 41.2 108.0 101.5 349.1
07/05 22:10 12.7 78 8.68 9 7 9 1030.9 0 19.8 27.0 41.5 108.7 102.4 352.0
07/05 22:00 12.7 80 8.91 9.3 9 11 1031 0 20.3 27.4 42.4 111.2 105.5 363.0
07/05 21:50 12.6 81 8.96 9.4 9 11 1031.1 0 20.4 27.5 42.7 112.0 106.3 365.9
07/05 21:40 12.7 79 8.79 9.2 11 13 1031 0 20.0 27.2 41.9 109.9 103.9 357.3
07/05 21:30 13 79 8.96 9.4 15 20 1031 0 20.4 27.4 42.5 111.4 105.8 364.0
07/05 21:20 12.6 83 9.18 9.8 13 15 1030.9 0 20.9 27.9 43.6 114.4 109.4 376.5
07/05 21:10 12.9 82 9.24 9.9 28 30 1031 0 21.0 27.9 43.7 114.6 109.8 378.0
07/05 21:00 13.8 72 8.58 8.8 19 32 1031 0 19.5 26.5 40.5 106.1 99.6 342.4
07/05 20:50 14 61 7.36 6.6 9 11 1030.8 0 16.9 24.5 35.6 92.9 83.4 285.9
07/05 20:40 13.9 61 7.31 6.5 11 11 1030.7 0 16.8 24.5 35.4 92.5 82.9 284.0
07/05 20:30 13.8 61 7.27 6.4 13 15 1030.9 0 16.7 24.4 35.3 92.2 82.5 282.6
07/05 20:20 13.8 61 7.27 6.4 9 11 1030.8 0 16.7 24.4 35.3 92.2 82.5 282.6
07/05 20:10 13.9 60 7.19 6.3 13 17 1030.8 0 16.6 24.3 35.0 91.3 81.4 278.6
07/05 20:00 13.9 60 7.19 6.3 17 20 1031 0 16.6 24.3 35.0 91.3 81.4 278.7
07/05 19:50 13.9 60 7.19 6.3 13 17 1031 0 16.6 24.3 35.0 91.3 81.4 278.7
07/05 19:40 13.2 65 7.46 6.8 11 11 1031 0 17.2 24.9 36.3 94.9 85.6 293.3

Last Refresh: 08-May-2026 12:10:20

Bureau of Meteorology